Bennett, CO

11:24 AM MST on January 29, 2015 (GMT -0700)
Front Range | Change Station
CLOSE
Current Station
Airport
Location: Denver,
Elevation: 5512 ft
Nearby Weather Stations

Elev 5512 ft 39.79 °N, 104.54 °W | Updated 34 minutes ago

Mostly Cloudy
Mostly Cloudy
45 °F
Feels Like 45 °F
N
0
Wind Variable Wind from North

Today
High -- | Low -- °F
--% Chance of Precip.
Yesterday
High -- | Low -- °F
Precip. -- in
7:09 AM 5:14 PM
Waxing Gibbous, 76% visible
Pressure 30.51 in
Visibility 40.0 miles
Clouds Mostly Cloudy 4800 ft
Dew Point 25 °F
Humidity 46%
Rainfall 0.00 in
Snow Depth Not available.
UV 2 out of 12
Pollen .30 out of 12
Air Quality Not available.
Flu Activity Not available.
METAR KFTG 291750Z 00000KT 40SM BKN048 07/M04 A3051

More Conditions Fewer Conditions

Pressure 30.51 in
Visibility 40.0 miles
Clouds Mostly Cloudy 4800 ft
Dew Point 25 °F
Humidity 46%
Rainfall 0.00 in
Snow Depth Not available.
UV 2 out of 12
Pollen .30 out of 12
Air Quality Not available.
Flu Activity Not available.
METAR KFTG 291750Z 00000KT 40SM BKN048 07/M04 A3051

More Conditions Fewer Conditions

10-Day Weather Forecast

Almanac

Astronomy

Jan. 29, 2015 Rise Set
Actual Time
Civil Twilight
Nautical Twilight
Astronomical Twilight
Moon
Length of Visible Light
Length of Day
Tomorrow will be .
, % of the Moon is Illuminated

Today's Extremes

State Highs State Lows

Community

WunderPhotos

Upload Photos

1,791,514 photos uploaded!

WunderBlogs® & News

Nearby

Air Quality

  Air Quality AQ Index Pollutant
Not available.

Snow Depth

Station Depth Elevation

Earthquake Activity

City Distance Mag. Time & Date
Minimum magnitude displayed is 2.5.

Coastal Water Temperatures

Place Temperature

Nearby Weather Stations